sensor_id;sensor_type;location;lat;lon;timestamp;P1;durP1;ratioP1;P2;durP2;ratioP2
8640;SDS011;4358;42.100;25.222;2023-04-12T00:02:13;7.63;;;4.40;;
8640;SDS011;4358;42.100;25.222;2023-04-12T00:04:40;5.73;;;4.07;;
8640;SDS011;4358;42.100;25.222;2023-04-12T00:07:07;4.67;;;4.17;;
8640;SDS011;4358;42.100;25.222;2023-04-12T00:09:36;5.70;;;4.53;;
8640;SDS011;4358;42.100;25.222;2023-04-12T00:12:05;6.53;;;4.50;;
8640;SDS011;4358;42.100;25.222;2023-04-12T00:14:32;4.40;;;4.00;;
8640;SDS011;4358;42.100;25.222;2023-04-12T00:16:59;4.20;;;3.80;;
8640;SDS011;4358;42.100;25.222;2023-04-12T00:19:26;4.57;;;3.77;;
8640;SDS011;4358;42.100;25.222;2023-04-12T00:21:55;4.73;;;4.00;;
8640;SDS011;4358;42.100;25.222;2023-04-12T00:24:22;4.63;;;4.00;;
8640;SDS011;4358;42.100;25.222;2023-04-12T00:26:49;5.17;;;4.00;;
8640;SDS011;4358;42.100;25.222;2023-04-12T00:29:17;7.07;;;4.10;;
8640;SDS011;4358;42.100;25.222;2023-04-12T00:31:44;6.10;;;4.03;;
8640;SDS011;4358;42.100;25.222;2023-04-12T00:34:10;5.73;;;3.27;;
8640;SDS011;4358;42.100;25.222;2023-04-12T00:36:37;4.27;;;3.50;;
8640;SDS011;4358;42.100;25.222;2023-04-12T00:39:04;5.83;;;3.77;;
8640;SDS011;4358;42.100;25.222;2023-04-12T00:41:31;5.90;;;4.23;;
8640;SDS011;4358;42.100;25.222;2023-04-12T00:43:58;5.67;;;4.53;;
8640;SDS011;4358;42.100;25.222;2023-04-12T00:46:26;4.47;;;3.63;;
8640;SDS011;4358;42.100;25.222;2023-04-12T00:48:53;4.47;;;3.70;;
8640;SDS011;4358;42.100;25.222;2023-04-12T00:51:21;5.13;;;3.83;;
8640;SDS011;4358;42.100;25.222;2023-04-12T00:53:50;6.13;;;4.00;;
8640;SDS011;4358;42.100;25.222;2023-04-12T00:56:18;4.97;;;3.40;;
8640;SDS011;4358;42.100;25.222;2023-04-12T00:58:47;4.83;;;3.60;;
8640;SDS011;4358;42.100;25.222;2023-04-12T01:01:14;4.93;;;4.03;;
8640;SDS011;4358;42.100;25.222;2023-04-12T01:03:45;3.87;;;3.43;;
8640;SDS011;4358;42.100;25.222;2023-04-12T01:06:12;4.27;;;3.37;;
8640;SDS011;4358;42.100;25.222;2023-04-12T01:08:52;3.53;;;3.23;;
8640;SDS011;4358;42.100;25.222;2023-04-12T01:11:28;5.37;;;3.77;;
8640;SDS011;4358;42.100;25.222;2023-04-12T01:14:01;5.37;;;3.87;;
8640;SDS011;4358;42.100;25.222;2023-04-12T01:16:34;3.70;;;3.10;;
8640;SDS011;4358;42.100;25.222;2023-04-12T01:19:14;4.10;;;3.70;;
8640;SDS011;4358;42.100;25.222;2023-04-12T01:22:07;5.73;;;3.90;;
8640;SDS011;4358;42.100;25.222;2023-04-12T01:24:42;3.80;;;3.20;;
8640;SDS011;4358;42.100;25.222;2023-04-12T01:27:30;3.93;;;3.60;;
8640;SDS011;4358;42.100;25.222;2023-04-12T01:30:03;4.77;;;3.77;;
8640;SDS011;4358;42.100;25.222;2023-04-12T01:32:33;4.67;;;3.90;;
8640;SDS011;4358;42.100;25.222;2023-04-12T01:35:02;4.37;;;3.67;;
8640;SDS011;4358;42.100;25.222;2023-04-12T01:37:33;4.37;;;3.87;;
8640;SDS011;4358;42.100;25.222;2023-04-12T01:40:00;5.43;;;4.20;;
8640;SDS011;4358;42.100;25.222;2023-04-12T01:42:31;4.57;;;3.93;;
8640;SDS011;4358;42.100;25.222;2023-04-12T01:44:58;4.13;;;3.63;;
8640;SDS011;4358;42.100;25.222;2023-04-12T01:47:25;4.37;;;3.77;;
8640;SDS011;4358;42.100;25.222;2023-04-12T01:49:54;4.47;;;4.07;;
8640;SDS011;4358;42.100;25.222;2023-04-12T01:52:29;7.37;;;3.37;;
8640;SDS011;4358;42.100;25.222;2023-04-12T01:54:57;5.10;;;3.90;;
8640;SDS011;4358;42.100;25.222;2023-04-12T01:57:27;4.60;;;4.10;;
8640;SDS011;4358;42.100;25.222;2023-04-12T01:59:56;5.27;;;3.60;;
8640;SDS011;4358;42.100;25.222;2023-04-12T02:02:25;3.73;;;3.27;;
8640;SDS011;4358;42.100;25.222;2023-04-12T02:04:52;5.20;;;4.00;;
8640;SDS011;4358;42.100;25.222;2023-04-12T02:07:20;3.97;;;3.50;;
8640;SDS011;4358;42.100;25.222;2023-04-12T02:09:48;4.83;;;3.67;;
8640;SDS011;4358;42.100;25.222;2023-04-12T02:12:15;4.30;;;3.80;;
8640;SDS011;4358;42.100;25.222;2023-04-12T02:14:42;3.80;;;3.40;;
8640;SDS011;4358;42.100;25.222;2023-04-12T02:17:10;3.63;;;3.30;;
8640;SDS011;4358;42.100;25.222;2023-04-12T02:19:37;6.87;;;4.33;;
8640;SDS011;4358;42.100;25.222;2023-04-12T02:22:04;5.27;;;3.80;;
8640;SDS011;4358;42.100;25.222;2023-04-12T02:24:32;4.87;;;3.93;;
8640;SDS011;4358;42.100;25.222;2023-04-12T02:26:59;4.87;;;3.90;;
8640;SDS011;4358;42.100;25.222;2023-04-12T02:29:26;4.73;;;4.23;;
8640;SDS011;4358;42.100;25.222;2023-04-12T02:31:53;4.10;;;3.30;;
8640;SDS011;4358;42.100;25.222;2023-04-12T02:34:21;5.53;;;4.40;;
8640;SDS011;4358;42.100;25.222;2023-04-12T02:36:48;4.07;;;3.17;;
8640;SDS011;4358;42.100;25.222;2023-04-12T02:39:15;4.40;;;3.30;;
8640;SDS011;4358;42.100;25.222;2023-04-12T02:41:43;4.40;;;3.37;;
8640;SDS011;4358;42.100;25.222;2023-04-12T02:44:10;4.47;;;4.07;;
8640;SDS011;4358;42.100;25.222;2023-04-12T02:46:37;7.27;;;4.57;;
8640;SDS011;4358;42.100;25.222;2023-04-12T02:49:04;4.50;;;4.10;;
8640;SDS011;4358;42.100;25.222;2023-04-12T02:51:32;4.97;;;3.93;;
8640;SDS011;4358;42.100;25.222;2023-04-12T02:53:59;5.63;;;3.90;;
8640;SDS011;4358;42.100;25.222;2023-04-12T02:56:26;7.07;;;3.80;;
8640;SDS011;4358;42.100;25.222;2023-04-12T02:58:54;5.23;;;3.97;;
8640;SDS011;4358;42.100;25.222;2023-04-12T03:01:21;4.30;;;3.83;;
8640;SDS011;4358;42.100;25.222;2023-04-12T03:03:48;5.27;;;3.73;;
8640;SDS011;4358;42.100;25.222;2023-04-12T03:06:15;6.07;;;4.23;;
8640;SDS011;4358;42.100;25.222;2023-04-12T03:08:43;4.80;;;3.73;;
8640;SDS011;4358;42.100;25.222;2023-04-12T03:11:10;6.60;;;4.13;;
8640;SDS011;4358;42.100;25.222;2023-04-12T03:13:36;6.83;;;4.50;;
8640;SDS011;4358;42.100;25.222;2023-04-12T03:16:18;11.60;;;3.30;;
8640;SDS011;4358;42.100;25.222;2023-04-12T03:18:47;5.30;;;4.10;;
8640;SDS011;4358;42.100;25.222;2023-04-12T03:21:14;4.43;;;4.00;;
8640;SDS011;4358;42.100;25.222;2023-04-12T03:23:42;5.57;;;3.93;;
8640;SDS011;4358;42.100;25.222;2023-04-12T03:26:10;4.83;;;4.23;;
8640;SDS011;4358;42.100;25.222;2023-04-12T03:28:36;4.70;;;3.90;;
8640;SDS011;4358;42.100;25.222;2023-04-12T03:31:03;4.30;;;3.80;;
8640;SDS011;4358;42.100;25.222;2023-04-12T03:33:30;4.63;;;4.07;;
8640;SDS011;4358;42.100;25.222;2023-04-12T03:35:57;6.33;;;3.93;;
8640;SDS011;4358;42.100;25.222;2023-04-12T03:38:25;5.13;;;4.40;;
8640;SDS011;4358;42.100;25.222;2023-04-12T03:40:53;4.63;;;3.93;;
8640;SDS011;4358;42.100;25.222;2023-04-12T03:43:20;7.63;;;5.40;;
8640;SDS011;4358;42.100;25.222;2023-04-12T03:45:47;7.50;;;6.07;;
8640;SDS011;4358;42.100;25.222;2023-04-12T03:48:14;8.53;;;6.27;;
8640;SDS011;4358;42.100;25.222;2023-04-12T03:50:41;5.30;;;4.63;;
8640;SDS011;4358;42.100;25.222;2023-04-12T03:53:09;5.37;;;4.60;;
8640;SDS011;4358;42.100;25.222;2023-04-12T03:55:36;4.97;;;4.17;;
8640;SDS011;4358;42.100;25.222;2023-04-12T03:58:04;4.87;;;4.30;;
8640;SDS011;4358;42.100;25.222;2023-04-12T04:00:31;7.20;;;4.83;;
8640;SDS011;4358;42.100;25.222;2023-04-12T04:02:59;6.73;;;4.40;;
8640;SDS011;4358;42.100;25.222;2023-04-12T04:05:29;5.80;;;4.70;;
8640;SDS011;4358;42.100;25.222;2023-04-12T04:07:56;5.97;;;4.53;;
8640;SDS011;4358;42.100;25.222;2023-04-12T04:10:25;7.80;;;4.40;;
8640;SDS011;4358;42.100;25.222;2023-04-12T04:12:52;7.30;;;5.20;;
8640;SDS011;4358;42.100;25.222;2023-04-12T04:15:20;5.47;;;4.10;;
8640;SDS011;4358;42.100;25.222;2023-04-12T04:17:47;5.17;;;4.17;;
8640;SDS011;4358;42.100;25.222;2023-04-12T04:20:14;6.30;;;4.90;;
8640;SDS011;4358;42.100;25.222;2023-04-12T04:22:42;5.37;;;4.40;;
8640;SDS011;4358;42.100;25.222;2023-04-12T04:25:12;5.87;;;4.37;;
8640;SDS011;4358;42.100;25.222;2023-04-12T04:27:40;6.17;;;4.83;;
8640;SDS011;4358;42.100;25.222;2023-04-12T04:30:09;5.20;;;4.37;;
8640;SDS011;4358;42.100;25.222;2023-04-12T04:32:37;7.07;;;4.50;;
8640;SDS011;4358;42.100;25.222;2023-04-12T04:35:05;6.83;;;4.97;;
8640;SDS011;4358;42.100;25.222;2023-04-12T04:37:33;5.93;;;5.00;;
8640;SDS011;4358;42.100;25.222;2023-04-12T04:40:00;5.80;;;4.93;;
8640;SDS011;4358;42.100;25.222;2023-04-12T04:42:31;5.93;;;5.20;;
8640;SDS011;4358;42.100;25.222;2023-04-12T04:44:58;5.97;;;4.40;;
8640;SDS011;4358;42.100;25.222;2023-04-12T04:47:38;6.30;;;4.97;;
8640;SDS011;4358;42.100;25.222;2023-04-12T04:50:05;7.50;;;5.37;;
8640;SDS011;4358;42.100;25.222;2023-04-12T04:52:33;5.03;;;4.53;;
8640;SDS011;4358;42.100;25.222;2023-04-12T04:55:02;5.00;;;4.47;;
8640;SDS011;4358;42.100;25.222;2023-04-12T04:57:29;7.03;;;4.30;;
8640;SDS011;4358;42.100;25.222;2023-04-12T04:59:56;5.47;;;4.53;;
8640;SDS011;4358;42.100;25.222;2023-04-12T05:02:23;6.03;;;4.73;;
8640;SDS011;4358;42.100;25.222;2023-04-12T05:04:51;7.13;;;5.20;;
8640;SDS011;4358;42.100;25.222;2023-04-12T05:07:20;5.77;;;4.73;;
8640;SDS011;4358;42.100;25.222;2023-04-12T05:09:47;6.37;;;4.70;;
8640;SDS011;4358;42.100;25.222;2023-04-12T05:12:14;6.77;;;4.97;;
8640;SDS011;4358;42.100;25.222;2023-04-12T05:14:41;6.00;;;5.00;;
8640;SDS011;4358;42.100;25.222;2023-04-12T05:17:08;5.90;;;4.60;;
8640;SDS011;4358;42.100;25.222;2023-04-12T05:19:35;8.17;;;5.60;;
8640;SDS011;4358;42.100;25.222;2023-04-12T05:22:03;6.10;;;4.90;;
8640;SDS011;4358;42.100;25.222;2023-04-12T05:24:30;7.93;;;5.30;;
8640;SDS011;4358;42.100;25.222;2023-04-12T05:26:56;6.90;;;5.57;;
8640;SDS011;4358;42.100;25.222;2023-04-12T05:29:24;5.93;;;5.07;;
8640;SDS011;4358;42.100;25.222;2023-04-12T05:31:50;6.53;;;4.83;;
8640;SDS011;4358;42.100;25.222;2023-04-12T05:34:18;8.23;;;5.13;;
8640;SDS011;4358;42.100;25.222;2023-04-12T05:36:45;8.37;;;5.90;;
8640;SDS011;4358;42.100;25.222;2023-04-12T05:39:14;7.13;;;5.83;;
8640;SDS011;4358;42.100;25.222;2023-04-12T05:41:40;7.27;;;6.10;;
8640;SDS011;4358;42.100;25.222;2023-04-12T05:44:07;7.90;;;5.97;;
8640;SDS011;4358;42.100;25.222;2023-04-12T05:46:35;12.77;;;5.93;;
8640;SDS011;4358;42.100;25.222;2023-04-12T05:49:02;7.57;;;5.70;;
8640;SDS011;4358;42.100;25.222;2023-04-12T05:51:28;6.30;;;5.20;;
8640;SDS011;4358;42.100;25.222;2023-04-12T05:53:55;9.43;;;5.57;;
8640;SDS011;4358;42.100;25.222;2023-04-12T05:56:23;6.87;;;4.97;;
8640;SDS011;4358;42.100;25.222;2023-04-12T05:58:50;8.37;;;5.20;;
8640;SDS011;4358;42.100;25.222;2023-04-12T06:01:17;6.47;;;5.17;;
8640;SDS011;4358;42.100;25.222;2023-04-12T06:03:45;6.17;;;5.47;;
8640;SDS011;4358;42.100;25.222;2023-04-12T06:06:13;6.57;;;4.87;;
8640;SDS011;4358;42.100;25.222;2023-04-12T06:08:40;7.73;;;5.40;;
8640;SDS011;4358;42.100;25.222;2023-04-12T06:11:07;6.77;;;5.47;;
8640;SDS011;4358;42.100;25.222;2023-04-12T06:13:37;9.97;;;5.80;;
8640;SDS011;4358;42.100;25.222;2023-04-12T06:16:04;6.80;;;5.60;;
8640;SDS011;4358;42.100;25.222;2023-04-12T06:18:32;7.33;;;5.30;;
8640;SDS011;4358;42.100;25.222;2023-04-12T06:20:59;7.43;;;5.70;;
8640;SDS011;4358;42.100;25.222;2023-04-12T06:23:25;6.37;;;5.30;;
8640;SDS011;4358;42.100;25.222;2023-04-12T06:25:52;10.33;;;5.07;;
8640;SDS011;4358;42.100;25.222;2023-04-12T06:28:19;7.67;;;5.20;;
8640;SDS011;4358;42.100;25.222;2023-04-12T06:30:47;7.23;;;4.97;;
8640;SDS011;4358;42.100;25.222;2023-04-12T06:33:14;6.50;;;4.50;;
8640;SDS011;4358;42.100;25.222;2023-04-12T06:35:41;6.60;;;4.90;;
8640;SDS011;4358;42.100;25.222;2023-04-12T06:38:08;7.70;;;5.20;;
8640;SDS011;4358;42.100;25.222;2023-04-12T06:40:35;5.67;;;4.90;;
8640;SDS011;4358;42.100;25.222;2023-04-12T06:43:01;8.43;;;6.03;;
8640;SDS011;4358;42.100;25.222;2023-04-12T06:45:28;7.13;;;4.73;;
8640;SDS011;4358;42.100;25.222;2023-04-12T06:47:57;5.80;;;5.20;;
8640;SDS011;4358;42.100;25.222;2023-04-12T06:50:24;6.63;;;5.07;;
8640;SDS011;4358;42.100;25.222;2023-04-12T06:52:51;6.33;;;5.07;;
8640;SDS011;4358;42.100;25.222;2023-04-12T06:55:18;6.27;;;4.90;;
8640;SDS011;4358;42.100;25.222;2023-04-12T06:57:45;5.30;;;4.67;;
8640;SDS011;4358;42.100;25.222;2023-04-12T07:00:12;7.73;;;5.73;;
8640;SDS011;4358;42.100;25.222;2023-04-12T07:02:39;6.17;;;5.10;;
8640;SDS011;4358;42.100;25.222;2023-04-12T07:05:08;7.07;;;5.90;;
8640;SDS011;4358;42.100;25.222;2023-04-12T07:07:35;6.20;;;4.47;;
8640;SDS011;4358;42.100;25.222;2023-04-12T07:10:02;5.33;;;4.57;;
8640;SDS011;4358;42.100;25.222;2023-04-12T07:12:29;6.37;;;4.57;;
8640;SDS011;4358;42.100;25.222;2023-04-12T07:14:56;5.13;;;4.33;;
8640;SDS011;4358;42.100;25.222;2023-04-12T07:17:23;5.43;;;4.33;;
8640;SDS011;4358;42.100;25.222;2023-04-12T07:19:51;5.63;;;4.30;;
8640;SDS011;4358;42.100;25.222;2023-04-12T07:22:19;5.33;;;4.20;;
8640;SDS011;4358;42.100;25.222;2023-04-12T07:24:46;4.40;;;3.57;;
8640;SDS011;4358;42.100;25.222;2023-04-12T07:27:14;4.93;;;4.03;;
8640;SDS011;4358;42.100;25.222;2023-04-12T07:29:41;6.67;;;3.13;;
8640;SDS011;4358;42.100;25.222;2023-04-12T07:32:08;4.17;;;3.10;;
8640;SDS011;4358;42.100;25.222;2023-04-12T07:34:36;4.27;;;2.03;;
8640;SDS011;4358;42.100;25.222;2023-04-12T07:37:03;2.90;;;1.57;;
8640;SDS011;4358;42.100;25.222;2023-04-12T07:39:32;2.60;;;1.50;;
8640;SDS011;4358;42.100;25.222;2023-04-12T07:42:00;1.53;;;1.40;;
8640;SDS011;4358;42.100;25.222;2023-04-12T07:44:27;1.97;;;1.57;;
8640;SDS011;4358;42.100;25.222;2023-04-12T07:46:53;1.67;;;1.47;;
8640;SDS011;4358;42.100;25.222;2023-04-12T07:49:20;1.63;;;1.40;;
8640;SDS011;4358;42.100;25.222;2023-04-12T07:51:47;1.67;;;1.40;;
8640;SDS011;4358;42.100;25.222;2023-04-12T07:54:14;1.57;;;1.30;;
8640;SDS011;4358;42.100;25.222;2023-04-12T07:56:55;1.60;;;1.50;;
8640;SDS011;4358;42.100;25.222;2023-04-12T07:59:23;2.63;;;1.40;;
8640;SDS011;4358;42.100;25.222;2023-04-12T08:01:49;1.63;;;1.47;;
8640;SDS011;4358;42.100;25.222;2023-04-12T08:04:16;3.23;;;1.63;;
8640;SDS011;4358;42.100;25.222;2023-04-12T08:06:43;1.90;;;1.50;;
8640;SDS011;4358;42.100;25.222;2023-04-12T08:09:10;2.33;;;1.90;;
8640;SDS011;4358;42.100;25.222;2023-04-12T08:11:37;3.53;;;2.40;;
8640;SDS011;4358;42.100;25.222;2023-04-12T08:14:05;2.70;;;2.10;;
8640;SDS011;4358;42.100;25.222;2023-04-12T08:16:32;4.00;;;2.03;;
8640;SDS011;4358;42.100;25.222;2023-04-12T08:18:58;2.50;;;2.30;;
8640;SDS011;4358;42.100;25.222;2023-04-12T08:21:25;3.00;;;2.00;;
8640;SDS011;4358;42.100;25.222;2023-04-12T08:23:54;2.30;;;1.80;;
8640;SDS011;4358;42.100;25.222;2023-04-12T08:26:21;1.53;;;1.00;;
8640;SDS011;4358;42.100;25.222;2023-04-12T08:28:47;1.60;;;1.20;;
8640;SDS011;4358;42.100;25.222;2023-04-12T08:31:15;1.40;;;1.07;;
8640;SDS011;4358;42.100;25.222;2023-04-12T08:33:42;0.80;;;0.80;;
8640;SDS011;4358;42.100;25.222;2023-04-12T08:36:09;2.87;;;1.00;;
8640;SDS011;4358;42.100;25.222;2023-04-12T08:38:36;1.30;;;0.97;;
8640;SDS011;4358;42.100;25.222;2023-04-12T08:41:03;1.23;;;1.00;;
8640;SDS011;4358;42.100;25.222;2023-04-12T08:43:31;2.30;;;1.00;;
8640;SDS011;4358;42.100;25.222;2023-04-12T08:45:59;1.20;;;1.10;;
8640;SDS011;4358;42.100;25.222;2023-04-12T08:48:28;3.20;;;2.17;;
8640;SDS011;4358;42.100;25.222;2023-04-12T08:50:55;1.20;;;1.00;;
8640;SDS011;4358;42.100;25.222;2023-04-12T08:53:22;2.83;;;2.53;;
8640;SDS011;4358;42.100;25.222;2023-04-12T08:55:49;1.73;;;0.97;;
8640;SDS011;4358;42.100;25.222;2023-04-12T08:58:17;1.10;;;1.00;;
8640;SDS011;4358;42.100;25.222;2023-04-12T09:00:44;2.90;;;1.30;;
8640;SDS011;4358;42.100;25.222;2023-04-12T09:03:12;1.57;;;1.47;;
8640;SDS011;4358;42.100;25.222;2023-04-12T09:05:40;1.90;;;1.20;;
8640;SDS011;4358;42.100;25.222;2023-04-12T09:08:07;1.50;;;1.40;;
8640;SDS011;4358;42.100;25.222;2023-04-12T09:10:34;1.17;;;1.00;;
8640;SDS011;4358;42.100;25.222;2023-04-12T09:13:02;1.73;;;1.10;;
8640;SDS011;4358;42.100;25.222;2023-04-12T09:15:30;1.80;;;1.50;;
8640;SDS011;4358;42.100;25.222;2023-04-12T09:18:02;11.10;;;5.53;;
8640;SDS011;4358;42.100;25.222;2023-04-12T09:20:31;3.97;;;2.30;;
8640;SDS011;4358;42.100;25.222;2023-04-12T09:22:59;2.70;;;1.83;;
8640;SDS011;4358;42.100;25.222;2023-04-12T09:25:36;1.50;;;1.23;;
8640;SDS011;4358;42.100;25.222;2023-04-12T09:28:16;2.70;;;2.00;;
8640;SDS011;4358;42.100;25.222;2023-04-12T09:30:44;2.37;;;1.87;;
8640;SDS011;4358;42.100;25.222;2023-04-12T09:33:16;2.90;;;2.37;;
8640;SDS011;4358;42.100;25.222;2023-04-12T09:35:44;2.93;;;1.77;;
8640;SDS011;4358;42.100;25.222;2023-04-12T09:38:12;2.03;;;1.77;;
8640;SDS011;4358;42.100;25.222;2023-04-12T09:40:39;2.00;;;1.67;;
8640;SDS011;4358;42.100;25.222;2023-04-12T09:43:06;2.13;;;1.70;;
8640;SDS011;4358;42.100;25.222;2023-04-12T09:45:34;5.10;;;2.27;;
8640;SDS011;4358;42.100;25.222;2023-04-12T09:48:03;3.13;;;2.33;;
8640;SDS011;4358;42.100;25.222;2023-04-12T09:50:31;7.33;;;2.30;;
8640;SDS011;4358;42.100;25.222;2023-04-12T09:52:59;3.30;;;2.17;;
8640;SDS011;4358;42.100;25.222;2023-04-12T09:55:28;3.50;;;2.50;;
8640;SDS011;4358;42.100;25.222;2023-04-12T09:58:00;3.73;;;2.10;;
8640;SDS011;4358;42.100;25.222;2023-04-12T10:00:29;3.60;;;2.33;;
8640;SDS011;4358;42.100;25.222;2023-04-12T10:02:58;8.73;;;2.53;;
8640;SDS011;4358;42.100;25.222;2023-04-12T10:05:27;2.47;;;2.10;;
8640;SDS011;4358;42.100;25.222;2023-04-12T10:07:54;3.20;;;2.10;;
8640;SDS011;4358;42.100;25.222;2023-04-12T10:10:22;3.30;;;2.50;;
8640;SDS011;4358;42.100;25.222;2023-04-12T10:12:50;1.77;;;1.67;;
8640;SDS011;4358;42.100;25.222;2023-04-12T10:15:17;3.63;;;1.80;;
8640;SDS011;4358;42.100;25.222;2023-04-12T10:17:47;2.53;;;1.70;;
8640;SDS011;4358;42.100;25.222;2023-04-12T10:20:15;2.27;;;2.07;;
8640;SDS011;4358;42.100;25.222;2023-04-12T10:22:44;3.63;;;2.33;;
8640;SDS011;4358;42.100;25.222;2023-04-12T10:25:12;2.00;;;1.80;;
8640;SDS011;4358;42.100;25.222;2023-04-12T10:27:40;2.43;;;1.90;;
8640;SDS011;4358;42.100;25.222;2023-04-12T10:30:19;2.73;;;2.00;;
8640;SDS011;4358;42.100;25.222;2023-04-12T10:32:47;1.83;;;1.73;;
8640;SDS011;4358;42.100;25.222;2023-04-12T10:35:15;2.07;;;1.87;;
8640;SDS011;4358;42.100;25.222;2023-04-12T10:38:00;2.00;;;1.73;;
8640;SDS011;4358;42.100;25.222;2023-04-12T10:40:27;2.00;;;1.80;;
8640;SDS011;4358;42.100;25.222;2023-04-12T10:45:51;2.50;;;2.17;;
8640;SDS011;4358;42.100;25.222;2023-04-12T10:48:27;2.70;;;2.10;;
8640;SDS011;4358;42.100;25.222;2023-04-12T10:51:10;2.30;;;1.90;;
8640;SDS011;4358;42.100;25.222;2023-04-12T10:53:42;2.93;;;2.57;;
8640;SDS011;4358;42.100;25.222;2023-04-12T10:59:03;3.00;;;2.30;;
8640;SDS011;4358;42.100;25.222;2023-04-12T11:01:33;2.03;;;1.83;;
8640;SDS011;4358;42.100;25.222;2023-04-12T11:04:04;5.03;;;2.67;;
8640;SDS011;4358;42.100;25.222;2023-04-12T11:09:27;2.40;;;2.00;;
8640;SDS011;4358;42.100;25.222;2023-04-12T11:12:09;3.10;;;2.17;;
8640;SDS011;4358;42.100;25.222;2023-04-12T11:14:43;2.67;;;1.87;;
8640;SDS011;4358;42.100;25.222;2023-04-12T11:17:25;2.20;;;2.00;;
8640;SDS011;4358;42.100;25.222;2023-04-12T11:19:53;1.80;;;1.40;;
8640;SDS011;4358;42.100;25.222;2023-04-12T11:22:22;1.00;;;0.90;;
8640;SDS011;4358;42.100;25.222;2023-04-12T11:24:50;2.80;;;1.63;;
8640;SDS011;4358;42.100;25.222;2023-04-12T11:27:17;1.50;;;1.20;;
8640;SDS011;4358;42.100;25.222;2023-04-12T11:29:47;1.83;;;1.40;;
8640;SDS011;4358;42.100;25.222;2023-04-12T11:32:15;1.97;;;1.27;;
8640;SDS011;4358;42.100;25.222;2023-04-12T11:34:44;1.63;;;1.53;;
8640;SDS011;4358;42.100;25.222;2023-04-12T11:37:12;6.20;;;3.23;;
8640;SDS011;4358;42.100;25.222;2023-04-12T11:39:40;6.50;;;2.97;;
8640;SDS011;4358;42.100;25.222;2023-04-12T11:42:11;4.30;;;3.17;;
8640;SDS011;4358;42.100;25.222;2023-04-12T11:44:39;2.80;;;1.83;;
8640;SDS011;4358;42.100;25.222;2023-04-12T11:47:11;2.13;;;1.90;;
8640;SDS011;4358;42.100;25.222;2023-04-12T11:49:42;2.53;;;1.77;;
8640;SDS011;4358;42.100;25.222;2023-04-12T11:52:11;3.27;;;1.40;;
8640;SDS011;4358;42.100;25.222;2023-04-12T11:54:40;2.70;;;1.23;;
8640;SDS011;4358;42.100;25.222;2023-04-12T11:57:09;1.40;;;1.30;;
8640;SDS011;4358;42.100;25.222;2023-04-12T11:59:37;1.53;;;1.37;;
8640;SDS011;4358;42.100;25.222;2023-04-12T12:02:05;1.90;;;1.23;;
8640;SDS011;4358;42.100;25.222;2023-04-12T12:04:33;1.40;;;1.30;;
8640;SDS011;4358;42.100;25.222;2023-04-12T12:07:02;2.30;;;1.43;;
8640;SDS011;4358;42.100;25.222;2023-04-12T12:09:30;2.20;;;1.50;;
8640;SDS011;4358;42.100;25.222;2023-04-12T12:11:57;1.70;;;1.57;;
8640;SDS011;4358;42.100;25.222;2023-04-12T12:14:25;1.40;;;1.30;;
8640;SDS011;4358;42.100;25.222;2023-04-12T12:16:53;1.53;;;1.43;;
8640;SDS011;4358;42.100;25.222;2023-04-12T12:19:29;1.37;;;1.27;;
8640;SDS011;4358;42.100;25.222;2023-04-12T12:24:49;1.93;;;1.30;;
8640;SDS011;4358;42.100;25.222;2023-04-12T12:27:18;1.60;;;1.50;;
8640;SDS011;4358;42.100;25.222;2023-04-12T12:29:47;1.73;;;1.43;;
8640;SDS011;4358;42.100;25.222;2023-04-12T12:32:19;1.37;;;1.27;;
8640;SDS011;4358;42.100;25.222;2023-04-12T12:34:50;4.43;;;2.73;;
8640;SDS011;4358;42.100;25.222;2023-04-12T12:37:21;1.20;;;1.10;;
8640;SDS011;4358;42.100;25.222;2023-04-12T12:40:06;1.30;;;1.20;;
8640;SDS011;4358;42.100;25.222;2023-04-12T12:42:43;1.23;;;1.10;;
8640;SDS011;4358;42.100;25.222;2023-04-12T12:45:11;2.07;;;1.57;;
8640;SDS011;4358;42.100;25.222;2023-04-12T12:47:45;1.83;;;1.40;;
8640;SDS011;4358;42.100;25.222;2023-04-12T12:50:13;2.30;;;1.57;;
8640;SDS011;4358;42.100;25.222;2023-04-12T12:52:43;1.67;;;1.43;;
8640;SDS011;4358;42.100;25.222;2023-04-12T12:55:11;1.60;;;1.40;;
8640;SDS011;4358;42.100;25.222;2023-04-12T12:57:38;3.70;;;2.40;;
8640;SDS011;4358;42.100;25.222;2023-04-12T13:00:05;1.73;;;1.57;;
8640;SDS011;4358;42.100;25.222;2023-04-12T13:02:34;3.40;;;1.40;;
8640;SDS011;4358;42.100;25.222;2023-04-12T13:05:01;1.63;;;1.23;;
8640;SDS011;4358;42.100;25.222;2023-04-12T13:07:28;1.30;;;1.20;;
8640;SDS011;4358;42.100;25.222;2023-04-12T13:09:57;1.10;;;1.00;;
8640;SDS011;4358;42.100;25.222;2023-04-12T13:12:23;3.97;;;2.30;;
8640;SDS011;4358;42.100;25.222;2023-04-12T13:14:50;2.23;;;1.60;;
8640;SDS011;4358;42.100;25.222;2023-04-12T13:17:17;1.20;;;1.10;;
8640;SDS011;4358;42.100;25.222;2023-04-12T13:19:45;1.13;;;1.07;;
8640;SDS011;4358;42.100;25.222;2023-04-12T13:22:12;1.30;;;1.20;;
8640;SDS011;4358;42.100;25.222;2023-04-12T13:24:39;1.37;;;1.10;;
8640;SDS011;4358;42.100;25.222;2023-04-12T13:27:07;2.87;;;1.23;;
8640;SDS011;4358;42.100;25.222;2023-04-12T13:29:34;2.13;;;1.30;;
8640;SDS011;4358;42.100;25.222;2023-04-12T13:32:01;1.00;;;0.90;;
8640;SDS011;4358;42.100;25.222;2023-04-12T13:34:29;1.67;;;1.30;;
8640;SDS011;4358;42.100;25.222;2023-04-12T13:36:56;1.10;;;0.80;;
8640;SDS011;4358;42.100;25.222;2023-04-12T13:39:24;0.90;;;0.90;;
8640;SDS011;4358;42.100;25.222;2023-04-12T13:41:51;1.27;;;0.90;;
8640;SDS011;4358;42.100;25.222;2023-04-12T13:44:19;3.10;;;1.50;;
8640;SDS011;4358;42.100;25.222;2023-04-12T13:46:45;3.53;;;1.73;;
8640;SDS011;4358;42.100;25.222;2023-04-12T13:49:12;2.30;;;1.20;;
8640;SDS011;4358;42.100;25.222;2023-04-12T13:51:39;2.20;;;1.50;;
8640;SDS011;4358;42.100;25.222;2023-04-12T13:54:06;2.50;;;1.30;;
8640;SDS011;4358;42.100;25.222;2023-04-12T13:56:33;1.10;;;1.00;;
8640;SDS011;4358;42.100;25.222;2023-04-12T13:59:00;0.97;;;0.97;;
8640;SDS011;4358;42.100;25.222;2023-04-12T14:01:29;3.17;;;1.30;;
8640;SDS011;4358;42.100;25.222;2023-04-12T14:03:56;1.17;;;1.00;;
8640;SDS011;4358;42.100;25.222;2023-04-12T14:06:23;1.63;;;1.10;;
8640;SDS011;4358;42.100;25.222;2023-04-12T14:08:50;1.03;;;1.00;;
8640;SDS011;4358;42.100;25.222;2023-04-12T14:11:17;4.47;;;1.40;;
8640;SDS011;4358;42.100;25.222;2023-04-12T14:13:44;1.97;;;0.90;;
8640;SDS011;4358;42.100;25.222;2023-04-12T14:16:10;2.67;;;1.10;;
8640;SDS011;4358;42.100;25.222;2023-04-12T14:18:39;2.23;;;1.20;;
8640;SDS011;4358;42.100;25.222;2023-04-12T14:21:06;1.93;;;1.20;;
8640;SDS011;4358;42.100;25.222;2023-04-12T14:23:34;1.00;;;0.90;;
8640;SDS011;4358;42.100;25.222;2023-04-12T14:26:01;1.40;;;1.20;;
8640;SDS011;4358;42.100;25.222;2023-04-12T14:28:28;1.97;;;1.60;;
8640;SDS011;4358;42.100;25.222;2023-04-12T14:30:55;1.77;;;1.57;;
8640;SDS011;4358;42.100;25.222;2023-04-12T14:33:24;2.93;;;1.43;;
8640;SDS011;4358;42.100;25.222;2023-04-12T14:35:52;1.60;;;1.13;;
8640;SDS011;4358;42.100;25.222;2023-04-12T14:38:19;1.33;;;1.03;;
8640;SDS011;4358;42.100;25.222;2023-04-12T14:40:47;1.80;;;1.40;;
8640;SDS011;4358;42.100;25.222;2023-04-12T14:43:14;1.47;;;0.90;;
8640;SDS011;4358;42.100;25.222;2023-04-12T14:45:41;1.10;;;1.00;;
8640;SDS011;4358;42.100;25.222;2023-04-12T14:48:08;1.20;;;1.00;;
8640;SDS011;4358;42.100;25.222;2023-04-12T14:50:34;0.80;;;0.80;;
8640;SDS011;4358;42.100;25.222;2023-04-12T14:53:03;1.20;;;1.03;;
8640;SDS011;4358;42.100;25.222;2023-04-12T14:55:31;1.00;;;1.00;;
8640;SDS011;4358;42.100;25.222;2023-04-12T14:57:58;0.90;;;0.90;;
8640;SDS011;4358;42.100;25.222;2023-04-12T15:00:24;1.20;;;1.10;;
8640;SDS011;4358;42.100;25.222;2023-04-12T15:02:53;1.10;;;0.83;;
8640;SDS011;4358;42.100;25.222;2023-04-12T15:05:20;1.70;;;1.17;;
8640;SDS011;4358;42.100;25.222;2023-04-12T15:07:47;1.33;;;0.90;;
8640;SDS011;4358;42.100;25.222;2023-04-12T15:10:15;0.93;;;0.83;;
8640;SDS011;4358;42.100;25.222;2023-04-12T15:12:43;2.17;;;0.80;;
8640;SDS011;4358;42.100;25.222;2023-04-12T15:15:09;1.10;;;0.90;;
8640;SDS011;4358;42.100;25.222;2023-04-12T15:17:36;1.30;;;1.00;;
8640;SDS011;4358;42.100;25.222;2023-04-12T15:20:04;1.10;;;1.03;;